Time;durP1;ratioP1;P1;durP2;ratioP2;P2;SDS_P1;SDS_P2;PMS_P1;PMS_P2;Temp;Humidity;BMP_temperature;BMP_pressure;BME280_temperature;BME280_humidity;BME280_pressure;Samples;Min_cycle;Max_cycle;Signal;HPM_P1;HPM_P2
2023/05/19 00:01:27;;;;;;;4.88;3.20;;;;;;;19.90;50.14;99747.09;4934270;29;20155;-77
2023/05/19 00:03:57;;;;;;;6.10;3.95;;;;;;;19.91;50.09;99743.50;4933986;28;20032;-77
2023/05/19 00:06:31;;;;;;;5.32;3.13;;;;;;;19.90;49.79;99741.81;4933413;29;20039;-76
2023/05/19 00:09:02;;;;;;;5.50;3.50;;;;;;;19.90;50.00;99728.56;4935386;29;20028;-76
2023/05/19 00:11:28;;;;;;;5.47;3.38;;;;;;;19.90;49.94;99739.16;4936351;28;20111;-76
2023/05/19 00:13:55;;;;;;;4.93;3.17;;;;;;;19.91;50.02;99732.91;4936114;29;20127;-76
2023/05/19 00:16:22;;;;;;;5.35;3.53;;;;;;;19.89;50.24;99732.16;4936303;29;20027;-75
2023/05/19 00:18:48;;;;;;;5.25;2.80;;;;;;;19.88;50.17;99733.06;4936326;29;20052;-76
2023/05/19 00:21:14;;;;;;;6.03;3.35;;;;;;;19.89;49.89;99740.09;4935913;29;20042;-76
2023/05/19 00:23:41;;;;;;;5.32;3.50;;;;;;;19.88;50.10;99735.72;4936232;29;20027;-75
2023/05/19 00:26:06;;;;;;;5.75;3.58;;;;;;;19.86;50.14;99733.16;4935731;29;20103;-75
2023/05/19 00:28:32;;;;;;;5.00;3.50;;;;;;;19.84;50.17;99727.94;4935930;29;20110;-76
2023/05/19 00:30:57;;;;;;;6.00;3.53;;;;;;;19.86;50.16;99736.66;4935736;29;20513;-75
2023/05/19 00:33:22;;;;;;;5.75;3.60;;;;;;;19.87;50.21;99732.22;4935737;29;20027;-75
2023/05/19 00:35:48;;;;;;;5.90;3.40;;;;;;;19.85;49.88;99729.66;4935118;29;20035;-76
2023/05/19 00:38:13;;;;;;;4.55;3.00;;;;;;;19.86;50.00;99731.34;4935349;29;20028;-76
2023/05/19 00:40:39;;;;;;;4.82;3.10;;;;;;;19.85;50.11;99732.28;4918124;29;20062;-76
2023/05/19 00:43:04;;;;;;;5.25;3.42;;;;;;;19.83;49.76;99728.88;4917779;28;20040;-76
2023/05/19 00:45:30;;;;;;;5.53;3.25;;;;;;;19.85;50.16;99724.34;4921560;29;20143;-76
2023/05/19 00:47:56;;;;;;;5.20;3.20;;;;;;;19.84;50.00;99725.28;4935169;29;20066;-76
2023/05/19 00:50:23;;;;;;;4.50;2.75;;;;;;;19.86;50.00;99720.75;4934909;29;20393;-76
2023/05/19 00:52:49;;;;;;;4.40;3.13;;;;;;;19.83;49.99;99715.63;4935143;29;20028;-77
2023/05/19 00:55:14;;;;;;;4.55;3.13;;;;;;;19.83;49.95;99722.72;4934513;28;20055;-75
2023/05/19 00:57:42;;;;;;;4.85;2.97;;;;;;;19.82;49.93;99724.50;4934692;29;20393;-75
2023/05/19 01:00:08;;;;;;;4.85;3.00;;;;;;;19.83;50.19;99715.63;4934859;29;20031;-76
2023/05/19 01:02:33;;;;;;;5.20;3.40;;;;;;;19.82;49.97;99713.91;4934621;29;20112;-75
2023/05/19 01:05:00;;;;;;;5.38;3.03;;;;;;;19.82;50.00;99716.53;4934804;29;20108;-75
2023/05/19 01:07:27;;;;;;;4.72;2.95;;;;;;;19.82;49.97;99708.59;4934403;29;20605;-76
2023/05/19 01:09:52;;;;;;;4.38;2.72;;;;;;;19.80;49.93;99707.84;4934547;29;20073;-75
2023/05/19 01:12:18;;;;;;;5.68;3.33;;;;;;;19.80;50.14;99697.25;4934875;29;20027;-75
2023/05/19 01:14:44;;;;;;;4.50;3.00;;;;;;;19.82;50.00;99699.81;4934519;29;20722;-76
2023/05/19 01:17:23;;;;;;;4.82;2.70;;;;;;;19.80;50.02;99699.91;4934332;29;20114;-76
2023/05/19 01:20:01;;;;;;;4.55;2.72;;;;;;;19.80;49.95;99697.25;4933559;29;20038;-75
2023/05/19 01:22:53;;;;;;;5.80;3.40;;;;;;;19.80;50.08;99691.94;4934516;29;20038;-76
2023/05/19 01:25:28;;;;;;;4.63;2.80;;;;;;;19.80;50.06;99689.31;4934227;29;20032;-75
2023/05/19 01:28:11;;;;;;;4.65;2.80;;;;;;;19.80;49.83;99689.31;4934241;29;20051;-75
2023/05/19 01:30:37;;;;;;;4.38;2.60;;;;;;;19.80;50.14;99689.31;4934353;29;20153;-76
2023/05/19 01:33:06;;;;;;;4.30;2.67;;;;;;;19.78;49.93;99685.03;4933999;29;20626;-75
2023/05/19 01:35:34;;;;;;;4.93;2.63;;;;;;;19.78;49.98;99691.19;4933879;29;20043;-76
2023/05/19 01:38:01;;;;;;;4.25;2.65;;;;;;;19.78;49.88;99691.19;4933905;29;20500;-76
2023/05/19 01:40:28;;;;;;;4.85;3.15;;;;;;;19.77;50.16;99684.19;4934172;29;20111;-76
2023/05/19 01:42:56;;;;;;;4.38;2.67;;;;;;;19.78;50.06;99691.19;4933747;29;20477;-76
2023/05/19 01:45:22;;;;;;;4.57;3.05;;;;;;;19.78;49.86;99685.91;4933941;29;20477;-76
2023/05/19 01:47:54;;;;;;;4.13;2.53;;;;;;;19.78;49.87;99683.25;4933530;29;20031;-76
2023/05/19 01:50:20;;;;;;;3.95;2.38;;;;;;;19.77;50.08;99686.84;4933915;29;20024;-76
2023/05/19 01:52:45;;;;;;;4.68;2.67;;;;;;;19.79;50.01;99689.38;4933800;29;20026;-76
2023/05/19 01:55:10;;;;;;;3.83;2.28;;;;;;;19.77;49.71;99684.19;4933660;28;20059;-76
2023/05/19 01:57:53;;;;;;;4.45;2.47;;;;;;;19.75;49.71;99680.75;4933821;29;20034;-76
2023/05/19 02:01:15;;;;;;;5.20;3.15;;;;;;;19.76;50.04;99687.75;4933770;29;20027;-75
2023/05/19 02:03:55;;;;;;;5.00;2.95;;;;;;;19.74;49.97;99679.03;4992037;28;20484;-76
2023/05/19 02:06:26;;;;;;;4.38;2.67;;;;;;;19.74;49.78;99673.75;4991796;28;20665;-76
2023/05/19 02:09:10;;;;;;;3.97;2.42;;;;;;;19.75;49.83;99671.97;4909477;28;20042;-76
2023/05/19 02:11:46;;;;;;;4.78;2.85;;;;;;;19.74;50.18;99671.09;4992026;28;20077;-75
2023/05/19 02:14:38;;;;;;;3.88;2.35;;;;;;;19.74;50.03;99663.16;4991800;28;20042;-76
2023/05/19 02:17:04;;;;;;;4.45;2.63;;;;;;;19.74;49.70;99665.81;4991513;28;20068;-75
2023/05/19 02:19:33;;;;;;;4.43;2.88;;;;;;;19.73;49.92;99662.28;4975534;28;20528;-76
2023/05/19 02:21:58;;;;;;;4.47;2.60;;;;;;;19.73;49.97;99661.44;4975419;28;20042;-75
2023/05/19 02:24:24;;;;;;;3.97;2.40;;;;;;;19.73;50.08;99661.44;4991516;28;20440;-75
2023/05/19 02:26:51;;;;;;;4.05;2.60;;;;;;;19.74;50.03;99663.16;4975151;28;20042;-76
2023/05/19 02:29:17;;;;;;;4.65;2.50;;;;;;;19.72;49.93;99665.03;4975166;28;20518;-75
2023/05/19 02:31:43;;;;;;;4.00;2.17;;;;;;;19.71;49.98;99661.53;4990191;28;20034;-76
2023/05/19 02:34:08;;;;;;;4.13;2.60;;;;;;;19.72;50.03;99660.56;4962137;28;20074;-76
2023/05/19 02:36:35;;;;;;;5.20;2.78;;;;;;;19.71;50.11;99661.53;4933222;29;20106;-75
2023/05/19 02:39:02;;;;;;;4.03;2.65;;;;;;;19.69;49.71;99659.88;4933065;29;20035;-75
2023/05/19 02:41:27;;;;;;;4.43;2.38;;;;;;;19.70;49.70;99662.47;4933070;29;20032;-76
2023/05/19 02:43:52;;;;;;;3.92;2.38;;;;;;;19.70;50.06;99656.28;4932856;29;20490;-76
2023/05/19 02:46:18;;;;;;;3.72;2.28;;;;;;;19.70;49.90;99657.16;4932871;29;20031;-76
2023/05/19 02:48:43;;;;;;;4.05;2.35;;;;;;;19.68;49.92;99650.25;4932963;29;20112;-76
2023/05/19 02:51:09;;;;;;;3.58;2.33;;;;;;;19.70;50.00;99656.28;4932989;29;20177;-76
2023/05/19 02:53:35;;;;;;;4.07;2.38;;;;;;;19.69;50.04;99649.28;4932747;29;20046;-75
2023/05/19 02:56:00;;;;;;;4.43;2.10;;;;;;;19.70;50.02;99651.00;4932666;29;20571;-75
2023/05/19 02:58:26;;;;;;;3.70;2.30;;;;;;;19.70;49.91;99651.00;4932488;29;20071;-76
2023/05/19 03:00:51;;;;;;;3.15;2.08;;;;;;;19.69;49.93;99649.28;4932365;29;20142;-76
2023/05/19 03:03:16;;;;;;;2.95;1.83;;;;;;;19.69;49.72;99662.53;4932599;29;20036;-76
2023/05/19 03:05:42;;;;;;;3.92;2.35;;;;;;;19.67;49.76;99651.19;4932653;29;20375;-76
2023/05/19 03:08:08;;;;;;;3.17;2.10;;;;;;;19.68;49.93;99648.47;4932703;29;20019;-76
2023/05/19 03:10:34;;;;;;;3.58;2.00;;;;;;;19.69;49.88;99651.94;4932616;29;20473;-76
2023/05/19 03:12:59;;;;;;;4.03;2.15;;;;;;;19.67;49.68;99648.53;4932587;29;20047;-76
2023/05/19 03:15:25;;;;;;;3.55;1.98;;;;;;;19.68;49.80;99637.00;4931945;29;20071;-76
2023/05/19 03:17:50;;;;;;;3.70;2.20;;;;;;;19.65;50.07;99638.03;4932455;29;20058;-76
2023/05/19 03:20:16;;;;;;;4.78;2.28;;;;;;;19.66;49.91;99638.88;4932368;29;20405;-76
2023/05/19 03:22:42;;;;;;;5.43;2.60;;;;;;;19.65;49.76;99642.44;4932269;29;20035;-76
2023/05/19 03:25:08;;;;;;;3.58;2.30;;;;;;;19.65;50.03;99642.44;4932316;29;20493;-76
2023/05/19 03:27:33;;;;;;;3.92;2.38;;;;;;;19.67;49.87;99640.59;4932414;29;20070;-76
2023/05/19 03:29:58;;;;;;;3.35;2.22;;;;;;;19.64;49.95;99638.09;4931923;29;20055;-76
2023/05/19 03:32:24;;;;;;;4.68;2.40;;;;;;;19.66;49.68;99633.59;4932337;29;20036;-75
2023/05/19 03:34:49;;;;;;;3.53;2.17;;;;;;;19.65;49.76;99637.16;4932240;29;20524;-76
2023/05/19 03:37:15;;;;;;;3.40;2.00;;;;;;;19.65;49.85;99637.16;4915035;29;20496;-75
2023/05/19 03:39:40;;;;;;;3.60;2.35;;;;;;;19.65;50.00;99631.84;4932333;29;20027;-76
2023/05/19 03:42:06;;;;;;;3.55;2.20;;;;;;;19.64;49.87;99635.44;4931834;29;20059;-75
2023/05/19 03:44:31;;;;;;;3.63;2.00;;;;;;;19.65;49.82;99637.16;4931937;29;20032;-76
2023/05/19 03:46:56;;;;;;;4.45;2.47;;;;;;;19.64;49.88;99635.44;4932166;29;20389;-76
2023/05/19 03:49:22;;;;;;;3.65;2.00;;;;;;;19.66;49.84;99638.88;4932006;29;20036;-76
2023/05/19 03:51:47;;;;;;;3.67;1.95;;;;;;;19.65;49.85;99639.78;4932032;29;20023;-75
2023/05/19 03:54:12;;;;;;;3.15;1.95;;;;;;;19.64;49.85;99638.09;4931658;28;20034;-76
2023/05/19 03:56:39;;;;;;;3.35;1.98;;;;;;;19.63;49.96;99639.03;4931816;29;20363;-75
2023/05/19 03:59:06;;;;;;;2.70;1.70;;;;;;;19.62;49.95;99642.63;4931783;29;20043;-75
2023/05/19 04:01:32;;;;;;;3.78;2.45;;;;;;;19.62;49.89;99646.13;4932030;29;20035;-75
2023/05/19 04:03:58;;;;;;;4.38;2.10;;;;;;;19.62;49.86;99637.31;4932080;29;20412;-76
2023/05/19 04:06:23;;;;;;;4.15;2.00;;;;;;;19.61;49.77;99640.91;4932047;29;20123;-76
2023/05/19 04:08:49;;;;;;;3.45;2.17;;;;;;;19.61;49.92;99640.91;4931654;29;20043;-76
2023/05/19 04:11:14;;;;;;;3.15;1.88;;;;;;;19.57;49.81;99646.34;4931670;29;20045;-76
2023/05/19 04:13:40;;;;;;;3.05;1.80;;;;;;;19.57;49.93;99643.72;4931558;29;20028;-76
2023/05/19 04:16:06;;;;;;;3.90;2.25;;;;;;;19.58;49.79;99637.47;4931988;29;20389;-75
2023/05/19 04:18:31;;;;;;;3.35;2.20;;;;;;;19.59;49.79;99639.22;4931865;29;20030;-76
2023/05/19 04:20:56;;;;;;;2.83;1.77;;;;;;;19.59;50.01;99639.22;4931875;29;20394;-75
2023/05/19 04:23:22;;;;;;;4.00;2.05;;;;;;;19.59;49.65;99630.41;4931663;29;20024;-76
2023/05/19 04:25:48;;;;;;;4.45;1.98;;;;;;;19.56;49.63;99634.06;4931415;29;20478;-75
2023/05/19 04:28:14;;;;;;;3.55;2.00;;;;;;;19.58;49.68;99637.47;4931091;29;20036;-76
2023/05/19 04:30:41;;;;;;;4.82;2.30;;;;;;;19.58;49.94;99636.63;4931552;29;20073;-76
2023/05/19 04:33:08;;;;;;;3.47;2.00;;;;;;;19.58;49.73;99637.47;4931706;28;20119;-76
2023/05/19 04:35:33;;;;;;;2.58;1.85;;;;;;;19.58;49.92;99640.13;4931295;29;20457;-76
2023/05/19 04:38:00;;;;;;;3.58;1.75;;;;;;;19.56;49.84;99644.66;4931372;29;20097;-79
2023/05/19 04:40:26;;;;;;;3.63;2.17;;;;;;;19.56;49.77;99642.00;4931591;29;20051;-75
2023/05/19 04:42:52;;;;;;;4.18;2.13;;;;;;;19.55;49.90;99637.66;4915060;29;20734;-75
2023/05/19 04:45:18;;;;;;;4.00;1.85;;;;;;;19.55;49.84;99642.94;4915314;29;20351;-76
2023/05/19 04:47:45;;;;;;;3.47;2.05;;;;;;;19.55;49.96;99642.06;4931376;29;20034;-74
2023/05/19 04:50:11;;;;;;;3.83;2.17;;;;;;;19.54;49.90;99641.25;4931154;29;20027;-76
2023/05/19 04:52:37;;;;;;;4.25;2.05;;;;;;;19.55;50.04;99640.28;4931489;29;20024;-76
2023/05/19 04:55:02;;;;;;;4.13;2.10;;;;;;;19.54;50.05;99648.31;4933329;29;20159;-76
2023/05/19 04:57:28;;;;;;;3.15;1.70;;;;;;;19.55;49.80;99642.06;4934156;29;20024;-76
2023/05/19 04:59:58;;;;;;;3.70;1.95;;;;;;;19.53;49.68;99638.66;4934349;29;20406;-76
2023/05/19 05:02:26;;;;;;;3.08;1.77;;;;;;;19.54;49.69;99650.97;4934429;29;20034;-76
2023/05/19 05:04:53;;;;;;;3.45;1.73;;;;;;;19.54;49.79;99645.66;4934368;29;20031;-76
2023/05/19 05:07:20;;;;;;;3.65;2.03;;;;;;;19.53;49.82;99638.66;4934250;29;20032;-76
2023/05/19 05:09:47;;;;;;;4.47;2.10;;;;;;;19.53;49.93;99644.81;4934339;29;20042;-76
2023/05/19 05:12:13;;;;;;;3.92;1.88;;;;;;;19.52;49.89;99643.09;4933970;29;20031;-76
2023/05/19 05:14:39;;;;;;;3.63;2.03;;;;;;;19.52;49.72;99637.78;4934112;29;20039;-76
2023/05/19 05:17:06;;;;;;;2.75;1.60;;;;;;;19.52;49.75;99643.09;4934353;29;20497;-76
2023/05/19 05:19:32;;;;;;;3.70;2.08;;;;;;;19.54;49.84;99643.00;4934141;29;20035;-76
2023/05/19 05:21:58;;;;;;;5.55;2.00;;;;;;;19.52;49.77;99643.09;4934099;29;20031;-75
2023/05/19 05:24:24;;;;;;;3.45;1.95;;;;;;;19.53;49.83;99642.19;4934375;29;20020;-76
2023/05/19 05:26:49;;;;;;;3.63;2.00;;;;;;;19.54;49.83;99635.94;4916700;29;20036;-75
2023/05/19 05:29:15;;;;;;;3.28;1.83;;;;;;;19.53;49.76;99649.25;4934047;28;20485;-76
2023/05/19 05:31:40;;;;;;;3.72;1.98;;;;;;;19.55;49.73;99652.66;4934180;29;20063;-76
2023/05/19 05:34:06;;;;;;;3.53;1.90;;;;;;;19.54;50.05;99651.81;4933731;29;20059;-76
2023/05/19 05:36:33;;;;;;;2.95;1.80;;;;;;;19.55;49.73;99647.38;4916900;28;20027;-76
2023/05/19 05:39:01;;;;;;;2.72;1.70;;;;;;;19.54;49.58;99645.66;4933545;29;20393;-75
2023/05/19 05:41:28;;;;;;;3.40;1.73;;;;;;;19.53;49.88;99652.75;4933897;29;20039;-76
2023/05/19 05:43:53;;;;;;;2.90;1.90;;;;;;;19.54;49.79;99643.00;4933878;29;20042;-76
2023/05/19 05:46:19;;;;;;;4.72;2.20;;;;;;;19.54;49.62;99651.81;4933943;29;20015;-75
2023/05/19 05:48:45;;;;;;;2.78;1.80;;;;;;;19.54;49.68;99653.59;4933640;29;20374;-76
2023/05/19 05:51:10;;;;;;;2.85;1.70;;;;;;;19.54;49.62;99665.06;4933658;29;20031;-76
2023/05/19 05:53:43;;;;;;;3.00;1.90;;;;;;;19.53;49.77;99655.41;4932480;29;20346;-75
2023/05/19 05:56:10;;;;;;;2.78;1.70;;;;;;;19.54;49.67;99650.97;4933531;28;20063;-75
2023/05/19 05:58:39;;;;;;;3.50;1.90;;;;;;;19.55;49.64;99660.59;4916675;29;20048;-75
2023/05/19 06:01:09;;;;;;;2.50;1.58;;;;;;;19.53;49.68;99663.34;4933655;29;20040;-76
2023/05/19 06:03:36;;;;;;;3.47;1.90;;;;;;;19.55;49.78;99653.53;4933625;29;20393;-75
2023/05/19 06:06:02;;;;;;;3.40;1.67;;;;;;;19.54;49.90;99651.81;4933415;29;20452;-76
2023/05/19 06:08:28;;;;;;;3.05;1.70;;;;;;;19.53;49.93;99652.75;4933183;29;20020;-75
2023/05/19 06:10:53;;;;;;;3.90;1.60;;;;;;;19.54;49.63;99656.25;4933395;29;20457;-76
2023/05/19 06:13:22;;;;;;;3.15;1.90;;;;;;;19.54;49.62;99650.97;4916331;29;20417;-76
2023/05/19 06:15:48;;;;;;;2.70;1.58;;;;;;;19.55;49.64;99657.97;4933697;29;20032;-75
2023/05/19 06:18:13;;;;;;;2.72;1.58;;;;;;;19.55;49.58;99652.66;4933242;29;20043;-76
2023/05/19 06:20:39;;;;;;;3.25;1.70;;;;;;;19.53;49.76;99658.06;4933478;29;20107;-76
2023/05/19 06:23:04;;;;;;;3.58;1.70;;;;;;;19.54;49.76;99657.13;4933018;29;20478;-76
2023/05/19 06:25:30;;;;;;;4.03;1.63;;;;;;;19.55;49.60;99655.31;4933333;29;20040;-76
2023/05/19 06:27:55;;;;;;;3.08;1.80;;;;;;;19.51;49.73;99651.97;4933080;29;20035;-75
2023/05/19 06:30:20;;;;;;;2.40;1.30;;;;;;;19.53;49.55;99655.41;4933269;29;20028;-77
2023/05/19 06:32:46;;;;;;;3.20;1.40;;;;;;;19.52;49.61;99658.97;4933189;29;20036;-75
2023/05/19 06:35:11;;;;;;;3.40;1.83;;;;;;;19.51;49.67;99651.97;4916068;29;20027;-76
2023/05/19 06:37:37;;;;;;;2.80;1.40;;;;;;;19.50;49.70;99650.25;4931859;29;20027;-76
2023/05/19 06:40:04;;;;;;;3.38;1.80;;;;;;;19.52;49.71;99653.69;4932960;29;20030;-76
2023/05/19 06:42:29;;;;;;;4.43;1.83;;;;;;;19.52;49.73;99648.38;4919139;29;20490;-76
2023/05/19 06:44:55;;;;;;;2.85;1.65;;;;;;;19.53;49.42;99655.41;4914196;29;20032;-76
2023/05/19 06:47:20;;;;;;;3.88;1.77;;;;;;;19.51;49.65;99646.69;4913710;28;20483;-76
2023/05/19 06:49:49;;;;;;;3.88;1.90;;;;;;;19.50;49.69;99647.63;4917725;29;20559;-75
2023/05/19 06:52:16;;;;;;;3.13;1.70;;;;;;;19.51;49.60;99656.44;4932590;29;20031;-75
2023/05/19 06:54:41;;;;;;;4.45;1.80;;;;;;;19.50;49.80;99652.91;4932720;28;20423;-76
2023/05/19 06:57:07;;;;;;;3.38;1.67;;;;;;;19.51;49.78;99651.97;4932966;29;20046;-76
2023/05/19 06:59:32;;;;;;;2.65;1.50;;;;;;;19.49;49.57;99651.22;4932667;29;20031;-76
2023/05/19 07:01:57;;;;;;;3.42;1.60;;;;;;;19.50;49.69;99650.25;4932692;29;20032;-76
2023/05/19 07:04:23;;;;;;;3.00;1.77;;;;;;;19.51;49.72;99651.97;4932910;29;20486;-76
2023/05/19 07:06:49;;;;;;;2.60;1.40;;;;;;;19.49;49.71;99648.56;4932348;29;20028;-75
2023/05/19 07:09:15;;;;;;;2.90;1.77;;;;;;;19.49;49.59;99651.22;4932368;29;20027;-76
2023/05/19 07:11:40;;;;;;;3.25;1.75;;;;;;;19.50;49.88;99644.09;4932625;29;20028;-77
2023/05/19 07:14:05;;;;;;;3.42;1.50;;;;;;;19.51;49.80;99651.13;4932524;29;20493;-76
2023/05/19 07:16:31;;;;;;;3.50;1.88;;;;;;;19.49;49.77;99650.34;4932086;28;20024;-76
2023/05/19 07:18:56;;;;;;;2.63;1.45;;;;;;;19.47;49.73;99647.78;4932437;29;20500;-75
2023/05/19 07:21:22;;;;;;;3.67;1.58;;;;;;;19.48;49.59;99652.16;4932179;29;20016;-76
2023/05/19 07:23:47;;;;;;;2.92;1.60;;;;;;;19.49;49.74;99651.22;4932510;29;20047;-75
2023/05/19 07:26:12;;;;;;;2.75;1.65;;;;;;;19.49;49.75;99658.28;4932441;29;20067;-75
2023/05/19 07:28:38;;;;;;;3.45;1.73;;;;;;;19.47;49.73;99650.44;4915182;28;20028;-76
2023/05/19 07:31:03;;;;;;;3.10;1.52;;;;;;;19.45;49.43;99658.44;4932471;29;20028;-76
2023/05/19 07:33:28;;;;;;;3.03;1.60;;;;;;;19.45;49.63;99662.88;4932322;29;20426;-76
2023/05/19 07:35:54;;;;;;;2.95;1.60;;;;;;;19.48;49.89;99656.56;4931832;29;20032;-76
2023/05/19 07:38:20;;;;;;;3.80;2.20;;;;;;;19.47;49.63;99655.72;4932025;29;20043;-76
2023/05/19 07:40:45;;;;;;;2.70;1.38;;;;;;;19.45;49.74;99662.88;4932109;29;20028;-76
2023/05/19 07:43:11;;;;;;;3.22;1.52;;;;;;;19.46;50.02;99654.00;4932310;29;20055;-76
2023/05/19 07:45:37;;;;;;;2.60;1.70;;;;;;;19.47;49.55;99668.09;4932100;29;20027;-75
2023/05/19 07:48:02;;;;;;;2.83;1.80;;;;;;;19.44;49.71;99672.63;4932147;29;20448;-76
2023/05/19 07:50:28;;;;;;;3.72;1.80;;;;;;;19.45;49.68;99669.03;4931610;29;20111;-75
2023/05/19 07:52:54;;;;;;;2.67;1.60;;;;;;;19.47;49.93;99681.31;4932210;29;20032;-76
2023/05/19 07:55:21;;;;;;;9.80;1.90;;;;;;;19.48;49.73;99672.44;4931934;28;20075;-75
2023/05/19 07:57:48;;;;;;;2.38;1.40;;;;;;;19.44;49.83;99662.03;4931998;29;20031;-76
2023/05/19 08:00:14;;;;;;;3.25;1.45;;;;;;;19.44;49.89;99671.75;4931991;29;20016;-76
2023/05/19 08:02:39;;;;;;;4.05;1.88;;;;;;;19.45;49.66;99682.28;4932195;29;20038;-76
2023/05/19 08:05:06;;;;;;;3.58;1.83;;;;;;;19.44;49.77;99682.34;4931669;29;20071;-76
2023/05/19 08:07:31;;;;;;;3.35;1.80;;;;;;;19.44;49.44;99677.03;4932119;29;20028;-76
2023/05/19 08:09:57;;;;;;;3.65;2.00;;;;;;;19.45;49.84;99681.41;4931704;29;20024;-76
2023/05/19 08:12:22;;;;;;;3.72;1.95;;;;;;;19.43;49.56;99680.63;4931795;29;20052;-75
2023/05/19 08:14:48;;;;;;;1.75;1.20;;;;;;;19.42;49.73;99686.88;4930928;29;20031;-76
2023/05/19 08:17:13;;;;;;;4.00;1.92;;;;;;;19.43;49.65;99691.22;4930753;29;20032;-76
2023/05/19 08:19:38;;;;;;;3.08;1.90;;;;;;;19.42;49.58;99690.34;4931645;29;20027;-76
2023/05/19 08:22:04;;;;;;;3.15;1.70;;;;;;;19.44;49.62;99684.97;4931817;29;20474;-76
2023/05/19 08:24:31;;;;;;;3.15;1.70;;;;;;;19.43;49.61;99680.63;4932612;29;20036;-76
2023/05/19 08:26:56;;;;;;;3.45;1.50;;;;;;;19.43;49.82;99680.63;4931896;29;20109;-76
2023/05/19 08:29:22;;;;;;;3.17;1.45;;;;;;;19.45;49.76;99689.34;4933000;29;20028;-79
2023/05/19 08:31:47;;;;;;;3.83;1.70;;;;;;;19.42;49.78;99685.06;4938751;29;20055;-76
2023/05/19 08:34:13;;;;;;;3.72;1.70;;;;;;;19.43;49.89;99685.94;4938756;29;20031;-76
2023/05/19 08:36:39;;;;;;;3.20;1.70;;;;;;;19.43;49.77;99691.22;4939607;29;20020;-75
2023/05/19 08:39:05;;;;;;;3.70;1.63;;;;;;;19.41;49.90;99690.41;4937304;29;20032;-75
2023/05/19 08:41:31;;;;;;;2.80;1.70;;;;;;;19.41;49.90;99691.28;4938480;29;20070;-76
2023/05/19 08:43:57;;;;;;;2.55;1.73;;;;;;;19.40;49.85;99686.94;4938681;29;20444;-75
2023/05/19 08:46:24;;;;;;;3.15;1.40;;;;;;;19.40;49.86;99684.28;4938611;29;20088;-76
2023/05/19 08:48:53;;;;;;;3.20;1.70;;;;;;;19.38;49.65;99683.53;4937274;29;20043;-76
2023/05/19 08:51:54;;;;;;;3.85;1.80;;;;;;;19.39;49.58;99676.41;4936666;29;20028;-76
2023/05/19 08:54:24;;;;;;;3.50;1.85;;;;;;;19.39;49.59;99671.13;4978862;28;20046;-76
2023/05/19 08:56:50;;;;;;;3.15;1.80;;;;;;;19.40;49.81;99672.84;4994461;28;20043;-75
2023/05/19 08:59:17;;;;;;;3.15;1.65;;;;;;;19.38;49.57;99675.59;4995124;28;20110;-76
2023/05/19 09:01:46;;;;;;;3.17;1.90;;;;;;;19.39;49.94;99681.72;4994980;28;20457;-76
2023/05/19 09:04:12;;;;;;;4.25;2.13;;;;;;;19.38;49.91;99666.78;4994094;28;20085;-76
2023/05/19 09:06:39;;;;;;;3.80;1.90;;;;;;;19.38;49.71;99672.94;4994114;28;20026;-76
2023/05/19 09:09:06;;;;;;;3.40;1.77;;;;;;;19.37;49.93;99659.78;4994467;28;20046;-76
2023/05/19 09:11:32;;;;;;;2.83;1.67;;;;;;;19.41;50.03;99666.59;4994336;28;20626;-77
2023/05/19 09:13:57;;;;;;;3.08;1.60;;;;;;;19.39;49.98;99657.91;4993829;28;20058;-76
2023/05/19 09:16:24;;;;;;;2.95;1.83;;;;;;;19.37;49.80;99657.97;4994157;28;20122;-76
2023/05/19 09:18:54;;;;;;;4.10;2.05;;;;;;;19.36;49.68;99658.91;4993398;28;20030;-76
2023/05/19 09:21:26;;;;;;;3.58;1.80;;;;;;;19.37;49.75;99655.31;4993496;28;20034;-76
2023/05/19 09:23:54;;;;;;;3.97;1.75;;;;;;;19.35;49.96;99658.97;4993607;28;20038;-75
2023/05/19 09:26:22;;;;;;;2.25;1.25;;;;;;;19.36;49.86;99664.19;4993675;28;20136;-76
2023/05/19 09:28:47;;;;;;;3.08;1.58;;;;;;;19.33;49.87;99667.03;4991000;28;20026;-76
2023/05/19 09:31:13;;;;;;;2.67;1.30;;;;;;;19.35;50.03;99661.63;4917020;28;20099;-76
2023/05/19 09:33:41;;;;;;;3.58;1.52;;;;;;;19.34;49.83;99665.22;4934732;29;20070;-76
2023/05/19 09:36:07;;;;;;;2.63;1.48;;;;;;;19.34;49.89;99659.91;4934271;29;20035;-76
2023/05/19 09:38:34;;;;;;;3.35;1.58;;;;;;;19.32;49.88;99660.84;4934475;29;20039;-75
2023/05/19 09:41:00;;;;;;;4.53;1.48;;;;;;;19.34;49.96;99655.50;4934056;29;20035;-74
2023/05/19 09:43:33;;;;;;;2.72;1.40;;;;;;;19.35;49.94;99657.19;4934120;29;20545;-75
2023/05/19 09:46:02;;;;;;;3.03;1.38;;;;;;;19.34;49.77;99665.22;4933794;28;20405;-75
2023/05/19 09:48:27;;;;;;;3.63;1.65;;;;;;;19.35;49.95;99664.28;4933957;29;20035;-76
2023/05/19 09:50:53;;;;;;;3.58;1.65;;;;;;;19.35;49.96;99656.34;4921268;29;20439;-74
2023/05/19 09:53:20;;;;;;;3.17;1.80;;;;;;;19.36;49.96;99658.91;4898079;29;20038;-75
2023/05/19 09:55:47;;;;;;;2.88;1.75;;;;;;;19.31;50.09;99651.22;4915231;28;20056;-76
2023/05/19 09:58:21;;;;;;;2.53;1.55;;;;;;;19.38;50.09;99656.19;4914997;29;20020;-75
2023/05/19 10:00:47;;;;;;;3.80;1.60;;;;;;;19.36;49.66;99658.06;4914812;29;20028;-76
2023/05/19 10:03:13;;;;;;;3.42;1.77;;;;;;;19.38;50.04;99657.06;4914955;29;20367;-76
2023/05/19 10:05:40;;;;;;;3.05;1.40;;;;;;;19.38;50.11;99658.84;4915166;29;20062;-77
2023/05/19 10:08:09;;;;;;;2.75;1.50;;;;;;;19.36;50.14;99653.63;4914913;29;20035;-76
2023/05/19 10:10:35;;;;;;;3.28;1.50;;;;;;;19.36;50.02;99653.63;4927349;29;20034;-76
2023/05/19 10:13:03;;;;;;;2.28;1.30;;;;;;;19.38;49.87;99642.97;4933962;29;20383;-76
2023/05/19 10:15:29;;;;;;;2.47;1.50;;;;;;;19.38;49.70;99649.13;4933356;29;20035;-77
2023/05/19 10:17:55;;;;;;;2.75;1.50;;;;;;;19.37;50.08;99644.75;4933559;29;20042;-77
2023/05/19 10:20:21;;;;;;;2.85;1.50;;;;;;;19.37;49.73;99638.59;4933605;29;20410;-76
2023/05/19 10:22:47;;;;;;;2.55;1.48;;;;;;;19.37;50.02;99634.16;4933438;29;20038;-76
2023/05/19 10:25:18;;;;;;;2.78;1.50;;;;;;;19.37;49.80;99635.97;4933697;29;20024;-76
2023/05/19 10:27:51;;;;;;;3.63;1.73;;;;;;;19.38;49.80;99635.03;4933169;29;20062;-76
2023/05/19 10:30:24;;;;;;;3.03;1.70;;;;;;;19.38;49.93;99630.59;4932997;29;20058;-76
2023/05/19 10:32:50;;;;;;;3.42;1.80;;;;;;;19.38;50.07;99621.78;4933509;29;20032;-76
2023/05/19 10:35:41;;;;;;;3.55;1.83;;;;;;;19.38;49.96;99625.31;4933188;28;20413;-76
2023/05/19 10:38:13;;;;;;;3.78;1.58;;;;;;;19.39;50.08;99631.44;4933196;29;20016;-76
2023/05/19 10:41:08;;;;;;;2.13;1.42;;;;;;;19.40;49.76;99635.78;4933251;29;20030;-76
2023/05/19 10:43:42;;;;;;;3.75;1.80;;;;;;;19.40;49.87;99635.78;4933191;28;20026;-76
2023/05/19 10:46:08;;;;;;;2.35;1.40;;;;;;;19.41;49.83;99629.56;4933217;29;20634;-76
2023/05/19 10:48:37;;;;;;;2.42;1.40;;;;;;;19.40;49.85;99633.13;4932950;29;20107;-76
2023/05/19 10:51:03;;;;;;;2.30;1.45;;;;;;;19.40;49.98;99633.13;4915636;29;20040;-76
2023/05/19 10:53:33;;;;;;;2.88;1.45;;;;;;;19.44;50.13;99629.41;4932683;29;20024;-75
2023/05/19 10:56:05;;;;;;;3.88;1.60;;;;;;;19.41;50.11;99624.25;4932789;28;20118;-76
2023/05/19 10:58:43;;;;;;;3.30;1.42;;;;;;;19.43;50.09;99627.72;4932705;28;20032;-76
2023/05/19 11:01:17;;;;;;;2.30;1.50;;;;;;;19.43;49.82;99627.72;4915806;29;20446;-75
2023/05/19 11:03:50;;;;;;;3.40;1.80;;;;;;;19.41;49.99;99624.25;4932835;29;20544;-76
2023/05/19 11:06:30;;;;;;;3.50;1.65;;;;;;;19.41;50.16;99618.97;4915533;29;20036;-76
2023/05/19 11:09:14;;;;;;;3.10;1.58;;;;;;;19.42;49.83;99626.00;4932518;29;20055;-76
2023/05/19 11:11:50;;;;;;;2.90;1.65;;;;;;;19.43;49.95;99622.41;4932785;29;20100;-76
2023/05/19 11:14:25;;;;;;;3.63;1.67;;;;;;;19.43;50.09;99631.19;4932226;29;20027;-76
2023/05/19 11:16:55;;;;;;;3.55;1.65;;;;;;;19.43;50.12;99628.53;4932529;29;20040;-76
2023/05/19 11:19:28;;;;;;;2.92;1.60;;;;;;;19.44;50.05;99632.06;4932515;29;20016;-76
2023/05/19 11:21:54;;;;;;;3.28;1.52;;;;;;;19.45;50.02;99636.41;4932753;29;20081;-76
2023/05/19 11:24:43;;;;;;;3.10;1.52;;;;;;;19.44;49.90;99629.41;4932540;29;20069;-77
2023/05/19 11:27:31;;;;;;;2.72;1.65;;;;;;;19.45;50.10;99625.81;4932224;29;20027;-75
2023/05/19 11:30:08;;;;;;;3.85;1.77;;;;;;;19.45;50.09;99626.69;4932388;29;20516;-77
2023/05/19 11:32:38;;;;;;;3.45;1.70;;;;;;;19.47;49.92;99628.41;4932483;29;20102;-76
2023/05/19 11:35:04;;;;;;;2.88;1.60;;;;;;;19.46;50.00;99622.25;4932442;29;20055;-76
2023/05/19 11:37:33;;;;;;;2.20;1.42;;;;;;;19.47;49.94;99629.25;4914850;28;20078;-76